This is the latest recevied weather packets stored in our database for station/object WG5EEK. If no packets are shown the sender has not sent any weather packets the latest 10 day(s).
| Time | Temp. | Humidity | Pressure | Rain* | Wind** | Luminosity | Snow |
|---|---|---|---|---|---|---|---|
| 1778111283 | 18.89° C | 61% | 982.5 hPa | - | - | - | - |
| 1778110921 | 18.33° C | 61% | 982.6 hPa | - | - | - | - |
| 1778110227 | 18.89° C | 61% | 982.3 hPa | - | - | - | - |
| 1778108065 | 18.89° C | 63% | 981.9 hPa | - | - | - | - |
| 1778105884 | 18.33° C | 63% | 981.6 hPa | - | - | - | - |
| 1778104444 | 18.33° C | 66% | 981.5 hPa | - | - | - | - |
| 1778100843 | 18.33° C | 65% | 982.6 hPa | - | - | - | - |
| 1778099402 | 18.33° C | 65% | 983 hPa | - | - | - | - |
| 1778097603 | 18.33° C | 65% | 983.2 hPa | - | - | - | - |
| 1778095082 | 17.78° C | 66% | 984.5 hPa | - | - | - | - |
| 1778093282 | 17.22° C | 65% | 985.5 hPa | - | - | - | - |
| 1778092920 | 17.22° C | 66% | 985.7 hPa | - | - | - | - |
| 1778090401 | 16.67° C | 67% | 986.9 hPa | - | - | - | - |
| 1778089680 | 16.11° C | 68% | 987.8 hPa | - | - | - | - |
| 1778089321 | 16.11° C | 68% | 988.4 hPa | - | - | - | - |
| 1778088961 | 16.11° C | 68% | 988.6 hPa | - | - | - | - |
| 1778088241 | 16.11° C | 70% | 988.8 hPa | - | - | - | - |
| 1778086082 | 15.56° C | 70% | 989.5 hPa | - | - | - | - |
| 1778083922 | 15° C | 71% | 989.3 hPa | - | - | - | - |
| 1778083561 | 15° C | 71% | 989.4 hPa | - | - | - | - |
| 1778083202 | 15° C | 71% | 989.3 hPa | - | - | - | - |
| 1778082482 | 15° C | 72% | 989 hPa | - | - | - | - |
| 1778082120 | 15° C | 72% | 989 hPa | - | - | - | - |
| 1778077801 | 13.89° C | 75% | 990.4 hPa | - | - | - | - |
| 1778077442 | 13.89° C | 76% | 990.1 hPa | - | - | - | - |
* Rain since midnight (hover to see other rain measurements)
** Current wind speed in m/s (hover to see current wind gust speed)